sensor_id;sensor_type;location;lat;lon;timestamp;pressure;altitude;pressure_sealevel;temperature;humidity
35647;BME280;28680;45.642;13.756;2023-03-01T00:01:21;101536.53;;;7.47;100.00
35647;BME280;28680;45.642;13.756;2023-03-01T00:03:47;101538.03;;;7.84;100.00
35647;BME280;28680;45.642;13.756;2023-03-01T00:06:14;101551.47;;;7.60;100.00
35647;BME280;28680;45.642;13.756;2023-03-01T00:08:40;101556.22;;;6.84;100.00
35647;BME280;28680;45.642;13.756;2023-03-01T00:11:07;101529.75;;;7.27;100.00
35647;BME280;28680;45.642;13.756;2023-03-01T00:13:34;101532.97;;;7.32;100.00
35647;BME280;28680;45.642;13.756;2023-03-01T00:16:10;101531.00;;;7.53;100.00
35647;BME280;28680;45.642;13.756;2023-03-01T00:18:36;101549.28;;;7.53;100.00
35647;BME280;28680;45.642;13.756;2023-03-01T00:21:02;101549.91;;;7.40;100.00
35647;BME280;28680;45.642;13.756;2023-03-01T00:23:29;101559.13;;;7.64;100.00
35647;BME280;28680;45.642;13.756;2023-03-01T00:25:55;101526.34;;;8.07;100.00
35647;BME280;28680;45.642;13.756;2023-03-01T00:28:21;101543.09;;;8.35;100.00
35647;BME280;28680;45.642;13.756;2023-03-01T00:30:47;101519.91;;;7.97;100.00
35647;BME280;28680;45.642;13.756;2023-03-01T00:33:13;101527.53;;;7.19;100.00
35647;BME280;28680;45.642;13.756;2023-03-01T00:35:39;101545.44;;;7.60;100.00
35647;BME280;28680;45.642;13.756;2023-03-01T00:40:40;101523.78;;;8.06;100.00
35647;BME280;28680;45.642;13.756;2023-03-01T00:43:06;101529.19;;;8.18;100.00
35647;BME280;28680;45.642;13.756;2023-03-01T00:45:32;101473.94;;;7.93;100.00
35647;BME280;28680;45.642;13.756;2023-03-01T00:47:58;101518.41;;;7.93;100.00
35647;BME280;28680;45.642;13.756;2023-03-01T00:50:24;101470.81;;;8.18;100.00
35647;BME280;28680;45.642;13.756;2023-03-01T00:52:55;101496.94;;;8.34;100.00
35647;BME280;28680;45.642;13.756;2023-03-01T00:55:21;101500.31;;;8.36;100.00
35647;BME280;28680;45.642;13.756;2023-03-01T00:57:47;101483.91;;;9.38;100.00
35647;BME280;28680;45.642;13.756;2023-03-01T01:00:13;101500.75;;;8.74;100.00
35647;BME280;28680;45.642;13.756;2023-03-01T01:02:39;101475.66;;;9.44;100.00
35647;BME280;28680;45.642;13.756;2023-03-01T01:05:06;101469.81;;;8.20;100.00
35647;BME280;28680;45.642;13.756;2023-03-01T01:07:32;101477.69;;;8.35;100.00
35647;BME280;28680;45.642;13.756;2023-03-01T01:09:58;101471.97;;;8.44;100.00
35647;BME280;28680;45.642;13.756;2023-03-01T01:12:24;101493.16;;;7.60;100.00
35647;BME280;28680;45.642;13.756;2023-03-01T01:14:50;101452.75;;;8.45;100.00
35647;BME280;28680;45.642;13.756;2023-03-01T01:17:15;101464.22;;;9.02;100.00
35647;BME280;28680;45.642;13.756;2023-03-01T01:19:41;101454.06;;;7.90;100.00
35647;BME280;28680;45.642;13.756;2023-03-01T01:22:07;101457.09;;;7.98;100.00
35647;BME280;28680;45.642;13.756;2023-03-01T01:24:33;101458.84;;;8.14;100.00
35647;BME280;28680;45.642;13.756;2023-03-01T01:26:59;101447.03;;;8.83;100.00
35647;BME280;28680;45.642;13.756;2023-03-01T01:29:24;101432.31;;;8.81;100.00
35647;BME280;28680;45.642;13.756;2023-03-01T01:31:50;101442.44;;;8.42;100.00
35647;BME280;28680;45.642;13.756;2023-03-01T01:34:20;101454.72;;;8.56;100.00
35647;BME280;28680;45.642;13.756;2023-03-01T01:36:51;101441.50;;;8.88;100.00
35647;BME280;28680;45.642;13.756;2023-03-01T01:39:19;101433.97;;;8.53;100.00
35647;BME280;28680;45.642;13.756;2023-03-01T01:41:45;101420.44;;;9.47;100.00
35647;BME280;28680;45.642;13.756;2023-03-01T01:49:55;101422.78;;;8.65;100.00
35647;BME280;28680;45.642;13.756;2023-03-01T01:52:34;101415.50;;;8.99;100.00
35647;BME280;28680;45.642;13.756;2023-03-01T01:55:14;101418.03;;;9.01;100.00
35647;BME280;28680;45.642;13.756;2023-03-01T01:57:45;101415.13;;;8.32;100.00
35647;BME280;28680;45.642;13.756;2023-03-01T02:00:36;101412.38;;;8.64;100.00
35647;BME280;28680;45.642;13.756;2023-03-01T02:03:12;101419.53;;;8.15;100.00
35647;BME280;28680;45.642;13.756;2023-03-01T02:06:02;101404.72;;;8.30;100.00
35647;BME280;28680;45.642;13.756;2023-03-01T02:08:33;101397.00;;;8.73;100.00
35647;BME280;28680;45.642;13.756;2023-03-01T02:11:01;101384.16;;;7.78;100.00
35647;BME280;28680;45.642;13.756;2023-03-01T02:13:34;101401.78;;;7.74;100.00
35647;BME280;28680;45.642;13.756;2023-03-01T02:16:09;101382.41;;;7.63;100.00
35647;BME280;28680;45.642;13.756;2023-03-01T02:18:35;101365.94;;;8.23;100.00
35647;BME280;28680;45.642;13.756;2023-03-01T02:21:30;101379.13;;;8.35;100.00
35647;BME280;28680;45.642;13.756;2023-03-01T02:27:12;101373.28;;;7.86;100.00
35647;BME280;28680;45.642;13.756;2023-03-01T02:29:38;101366.25;;;8.32;100.00
35647;BME280;28680;45.642;13.756;2023-03-01T02:32:05;101372.16;;;8.06;100.00
35647;BME280;28680;45.642;13.756;2023-03-01T02:34:31;101382.75;;;7.40;100.00
35647;BME280;28680;45.642;13.756;2023-03-01T02:37:07;101369.50;;;7.28;100.00
35647;BME280;28680;45.642;13.756;2023-03-01T02:39:40;101352.91;;;8.07;100.00
35647;BME280;28680;45.642;13.756;2023-03-01T02:42:13;101361.78;;;8.34;100.00
35647;BME280;28680;45.642;13.756;2023-03-01T02:44:40;101348.75;;;7.88;100.00
35647;BME280;28680;45.642;13.756;2023-03-01T02:47:06;101364.34;;;8.20;100.00
35647;BME280;28680;45.642;13.756;2023-03-01T02:49:36;101351.19;;;8.81;100.00
35647;BME280;28680;45.642;13.756;2023-03-01T02:55:08;101347.34;;;8.57;100.00
35647;BME280;28680;45.642;13.756;2023-03-01T02:57:37;101349.75;;;8.46;100.00
35647;BME280;28680;45.642;13.756;2023-03-01T03:00:19;101332.19;;;8.04;100.00
35647;BME280;28680;45.642;13.756;2023-03-01T03:02:50;101333.47;;;9.13;100.00
35647;BME280;28680;45.642;13.756;2023-03-01T03:05:21;101349.31;;;8.68;100.00
35647;BME280;28680;45.642;13.756;2023-03-01T03:07:49;101332.03;;;8.80;100.00
35647;BME280;28680;45.642;13.756;2023-03-01T03:10:27;101342.03;;;8.59;100.00
35647;BME280;28680;45.642;13.756;2023-03-01T03:12:59;101342.97;;;8.72;100.00
35647;BME280;28680;45.642;13.756;2023-03-01T03:15:26;101350.06;;;8.99;100.00
35647;BME280;28680;45.642;13.756;2023-03-01T03:17:53;101348.09;;;9.03;100.00
35647;BME280;28680;45.642;13.756;2023-03-01T03:20:24;101337.09;;;8.38;100.00
35647;BME280;28680;45.642;13.756;2023-03-01T03:22:53;101344.47;;;8.91;100.00
35647;BME280;28680;45.642;13.756;2023-03-01T03:25:21;101349.84;;;9.16;100.00
35647;BME280;28680;45.642;13.756;2023-03-01T03:27:49;101343.59;;;9.19;100.00
35647;BME280;28680;45.642;13.756;2023-03-01T03:30:28;101358.75;;;8.71;100.00
35647;BME280;28680;45.642;13.756;2023-03-01T03:32:55;101351.09;;;8.23;100.00
35647;BME280;28680;45.642;13.756;2023-03-01T03:35:30;101335.63;;;8.04;100.00
35647;BME280;28680;45.642;13.756;2023-03-01T03:37:59;101353.28;;;8.00;100.00
35647;BME280;28680;45.642;13.756;2023-03-01T03:40:37;101334.66;;;8.35;100.00
35647;BME280;28680;45.642;13.756;2023-03-01T03:43:07;101319.59;;;8.55;100.00
35647;BME280;28680;45.642;13.756;2023-03-01T03:45:34;101318.22;;;8.33;100.00
35647;BME280;28680;45.642;13.756;2023-03-01T03:48:03;101336.22;;;8.54;100.00
35647;BME280;28680;45.642;13.756;2023-03-01T03:50:30;101317.19;;;8.22;100.00
35647;BME280;28680;45.642;13.756;2023-03-01T03:52:55;101310.81;;;8.42;100.00
35647;BME280;28680;45.642;13.756;2023-03-01T03:55:21;101322.47;;;8.93;100.00
35647;BME280;28680;45.642;13.756;2023-03-01T03:57:48;101324.31;;;8.34;100.00
35647;BME280;28680;45.642;13.756;2023-03-01T04:00:21;101310.84;;;7.81;100.00
35647;BME280;28680;45.642;13.756;2023-03-01T04:02:50;101296.22;;;7.93;100.00
35647;BME280;28680;45.642;13.756;2023-03-01T04:05:18;101307.41;;;8.39;100.00
35647;BME280;28680;45.642;13.756;2023-03-01T04:07:45;101301.03;;;9.01;100.00
35647;BME280;28680;45.642;13.756;2023-03-01T04:10:15;101308.41;;;8.37;100.00
35647;BME280;28680;45.642;13.756;2023-03-01T04:12:42;101314.94;;;8.60;100.00
35647;BME280;28680;45.642;13.756;2023-03-01T04:15:11;101311.91;;;9.09;100.00
35647;BME280;28680;45.642;13.756;2023-03-01T04:17:46;101308.09;;;8.43;100.00
35647;BME280;28680;45.642;13.756;2023-03-01T04:20:15;101307.59;;;9.08;100.00
35647;BME280;28680;45.642;13.756;2023-03-01T04:22:51;101303.41;;;8.48;100.00
35647;BME280;28680;45.642;13.756;2023-03-01T04:25:18;101288.19;;;8.69;100.00
35647;BME280;28680;45.642;13.756;2023-03-01T04:27:44;101297.81;;;8.69;100.00
35647;BME280;28680;45.642;13.756;2023-03-01T04:30:10;101266.31;;;7.83;100.00
35647;BME280;28680;45.642;13.756;2023-03-01T04:32:36;101275.72;;;8.30;100.00
35647;BME280;28680;45.642;13.756;2023-03-01T04:35:02;101275.44;;;8.92;100.00
35647;BME280;28680;45.642;13.756;2023-03-01T04:37:28;101266.31;;;8.56;100.00
35647;BME280;28680;45.642;13.756;2023-03-01T04:39:55;101268.66;;;8.61;100.00
35647;BME280;28680;45.642;13.756;2023-03-01T04:42:21;101270.50;;;8.87;100.00
35647;BME280;28680;45.642;13.756;2023-03-01T04:44:47;101260.84;;;9.02;100.00
35647;BME280;28680;45.642;13.756;2023-03-01T04:47:13;101251.59;;;8.96;100.00
35647;BME280;28680;45.642;13.756;2023-03-01T04:49:39;101239.22;;;8.43;100.00
35647;BME280;28680;45.642;13.756;2023-03-01T04:52:05;101243.78;;;8.82;100.00
35647;BME280;28680;45.642;13.756;2023-03-01T04:54:32;101247.81;;;8.73;100.00
35647;BME280;28680;45.642;13.756;2023-03-01T04:56:59;101245.50;;;8.54;100.00
35647;BME280;28680;45.642;13.756;2023-03-01T04:59:25;101246.97;;;9.42;100.00
35647;BME280;28680;45.642;13.756;2023-03-01T05:06:34;101250.97;;;8.78;100.00
35647;BME280;28680;45.642;13.756;2023-03-01T05:21:06;101268.00;;;8.57;100.00
35647;BME280;28680;45.642;13.756;2023-03-01T05:23:33;101242.91;;;8.54;100.00
35647;BME280;28680;45.642;13.756;2023-03-01T05:26:04;101251.34;;;9.68;100.00
35647;BME280;28680;45.642;13.756;2023-03-01T05:28:31;101263.16;;;9.07;100.00
35647;BME280;28680;45.642;13.756;2023-03-01T05:30:57;101211.13;;;8.88;100.00
35647;BME280;28680;45.642;13.756;2023-03-01T05:33:25;101222.38;;;9.57;100.00
35647;BME280;28680;45.642;13.756;2023-03-01T05:35:51;101230.19;;;9.44;100.00
35647;BME280;28680;45.642;13.756;2023-03-01T05:38:19;101240.03;;;9.41;100.00
35647;BME280;28680;45.642;13.756;2023-03-01T05:40:48;101237.22;;;9.44;100.00
35647;BME280;28680;45.642;13.756;2023-03-01T05:43:16;101242.78;;;9.12;100.00
35647;BME280;28680;45.642;13.756;2023-03-01T05:45:43;101219.13;;;8.57;100.00
35647;BME280;28680;45.642;13.756;2023-03-01T05:48:10;101213.97;;;8.85;100.00
35647;BME280;28680;45.642;13.756;2023-03-01T05:50:40;101211.16;;;9.15;100.00
35647;BME280;28680;45.642;13.756;2023-03-01T05:53:11;101206.38;;;8.80;100.00
35647;BME280;28680;45.642;13.756;2023-03-01T05:55:38;101208.00;;;8.39;100.00
35647;BME280;28680;45.642;13.756;2023-03-01T05:58:09;101234.00;;;8.28;100.00
35647;BME280;28680;45.642;13.756;2023-03-01T06:00:35;101227.41;;;8.93;100.00
35647;BME280;28680;45.642;13.756;2023-03-01T06:03:02;101236.72;;;8.97;100.00
35647;BME280;28680;45.642;13.756;2023-03-01T06:05:28;101215.06;;;8.81;100.00
35647;BME280;28680;45.642;13.756;2023-03-01T06:07:54;101228.66;;;9.67;100.00
35647;BME280;28680;45.642;13.756;2023-03-01T06:10:22;101233.13;;;9.12;100.00
35647;BME280;28680;45.642;13.756;2023-03-01T06:12:48;101252.84;;;8.33;100.00
35647;BME280;28680;45.642;13.756;2023-03-01T06:15:15;101282.31;;;8.51;100.00
35647;BME280;28680;45.642;13.756;2023-03-01T06:17:44;101282.94;;;8.69;100.00
35647;BME280;28680;45.642;13.756;2023-03-01T06:20:29;101298.06;;;7.45;100.00
35647;BME280;28680;45.642;13.756;2023-03-01T06:22:55;101298.25;;;8.32;100.00
35647;BME280;28680;45.642;13.756;2023-03-01T06:25:24;101246.34;;;8.55;100.00
35647;BME280;28680;45.642;13.756;2023-03-01T06:27:51;101251.38;;;9.00;100.00
35647;BME280;28680;45.642;13.756;2023-03-01T06:30:21;101244.25;;;9.16;100.00
35647;BME280;28680;45.642;13.756;2023-03-01T06:32:47;101247.69;;;8.89;100.00
35647;BME280;28680;45.642;13.756;2023-03-01T06:35:15;101245.81;;;8.91;100.00
35647;BME280;28680;45.642;13.756;2023-03-01T06:37:45;101230.06;;;8.64;100.00
35647;BME280;28680;45.642;13.756;2023-03-01T06:40:12;101215.03;;;8.68;100.00
35647;BME280;28680;45.642;13.756;2023-03-01T06:42:41;101244.34;;;8.15;100.00
35647;BME280;28680;45.642;13.756;2023-03-01T06:45:09;101216.03;;;8.22;100.00
35647;BME280;28680;45.642;13.756;2023-03-01T06:47:35;101238.31;;;7.85;100.00
35647;BME280;28680;45.642;13.756;2023-03-01T06:50:02;101228.97;;;7.80;100.00
35647;BME280;28680;45.642;13.756;2023-03-01T06:52:28;101225.56;;;7.94;100.00
35647;BME280;28680;45.642;13.756;2023-03-01T06:54:55;101238.31;;;8.44;100.00
35647;BME280;28680;45.642;13.756;2023-03-01T06:57:21;101230.31;;;8.02;100.00
35647;BME280;28680;45.642;13.756;2023-03-01T06:59:47;101233.78;;;8.03;100.00
35647;BME280;28680;45.642;13.756;2023-03-01T07:02:14;101249.00;;;8.39;100.00
35647;BME280;28680;45.642;13.756;2023-03-01T07:04:41;101223.25;;;9.03;100.00
35647;BME280;28680;45.642;13.756;2023-03-01T07:07:08;101249.59;;;9.42;100.00
35647;BME280;28680;45.642;13.756;2023-03-01T07:09:34;101243.03;;;8.23;100.00
35647;BME280;28680;45.642;13.756;2023-03-01T07:12:00;101247.13;;;8.84;100.00
35647;BME280;28680;45.642;13.756;2023-03-01T07:14:25;101229.34;;;8.62;100.00
35647;BME280;28680;45.642;13.756;2023-03-01T07:16:55;101240.97;;;9.80;100.00
35647;BME280;28680;45.642;13.756;2023-03-01T07:19:21;101259.94;;;9.43;100.00
35647;BME280;28680;45.642;13.756;2023-03-01T07:21:48;101238.13;;;9.70;100.00
35647;BME280;28680;45.642;13.756;2023-03-01T07:24:14;101244.09;;;9.85;100.00
35647;BME280;28680;45.642;13.756;2023-03-01T07:26:40;101242.41;;;9.31;100.00
35647;BME280;28680;45.642;13.756;2023-03-01T07:29:07;101260.31;;;9.51;100.00
35647;BME280;28680;45.642;13.756;2023-03-01T07:31:34;101243.09;;;8.93;100.00
35647;BME280;28680;45.642;13.756;2023-03-01T07:34:00;101253.50;;;9.22;100.00
35647;BME280;28680;45.642;13.756;2023-03-01T07:36:26;101239.38;;;9.64;100.00
35647;BME280;28680;45.642;13.756;2023-03-01T07:38:52;101236.69;;;9.91;100.00
35647;BME280;28680;45.642;13.756;2023-03-01T07:41:18;101211.34;;;9.52;100.00
35647;BME280;28680;45.642;13.756;2023-03-01T07:43:44;101233.97;;;9.93;100.00
35647;BME280;28680;45.642;13.756;2023-03-01T07:46:10;101210.13;;;10.09;100.00
35647;BME280;28680;45.642;13.756;2023-03-01T07:48:36;101167.84;;;9.49;100.00
35647;BME280;28680;45.642;13.756;2023-03-01T07:51:07;101192.81;;;10.32;100.00
35647;BME280;28680;45.642;13.756;2023-03-01T07:53:34;101185.44;;;10.63;100.00
35647;BME280;28680;45.642;13.756;2023-03-01T07:56:04;101179.19;;;10.40;100.00
35647;BME280;28680;45.642;13.756;2023-03-01T07:58:30;101189.50;;;10.17;100.00
35647;BME280;28680;45.642;13.756;2023-03-01T08:01:01;101154.22;;;10.21;100.00
35647;BME280;28680;45.642;13.756;2023-03-01T08:03:27;101163.47;;;10.40;100.00
35647;BME280;28680;45.642;13.756;2023-03-01T08:05:53;101170.78;;;10.09;100.00
35647;BME280;28680;45.642;13.756;2023-03-01T08:08:19;101153.69;;;10.42;100.00
35647;BME280;28680;45.642;13.756;2023-03-01T08:10:45;101153.69;;;10.66;100.00
35647;BME280;28680;45.642;13.756;2023-03-01T08:13:10;101153.56;;;10.43;100.00
35647;BME280;28680;45.642;13.756;2023-03-01T08:15:36;101137.56;;;10.59;100.00
35647;BME280;28680;45.642;13.756;2023-03-01T08:18:02;101148.44;;;10.42;100.00
35647;BME280;28680;45.642;13.756;2023-03-01T08:20:28;101117.66;;;10.68;100.00
35647;BME280;28680;45.642;13.756;2023-03-01T08:22:54;101111.41;;;11.06;100.00
35647;BME280;28680;45.642;13.756;2023-03-01T08:25:19;101124.19;;;10.62;100.00
35647;BME280;28680;45.642;13.756;2023-03-01T08:27:45;101130.13;;;10.77;100.00
35647;BME280;28680;45.642;13.756;2023-03-01T08:30:12;101099.19;;;10.45;100.00
35647;BME280;28680;45.642;13.756;2023-03-01T08:32:39;101083.44;;;10.69;100.00
35647;BME280;28680;45.642;13.756;2023-03-01T08:35:06;101068.50;;;10.59;100.00
35647;BME280;28680;45.642;13.756;2023-03-01T08:37:32;101089.47;;;9.59;100.00
35647;BME280;28680;45.642;13.756;2023-03-01T08:39:59;101071.94;;;9.47;100.00
35647;BME280;28680;45.642;13.756;2023-03-01T08:42:26;101071.19;;;9.83;100.00
35647;BME280;28680;45.642;13.756;2023-03-01T08:44:52;101068.38;;;9.73;100.00
35647;BME280;28680;45.642;13.756;2023-03-01T08:47:18;101076.75;;;9.91;100.00
35647;BME280;28680;45.642;13.756;2023-03-01T08:49:43;101069.84;;;10.14;100.00
35647;BME280;28680;45.642;13.756;2023-03-01T08:52:09;101091.13;;;9.73;100.00
35647;BME280;28680;45.642;13.756;2023-03-01T08:54:36;101076.16;;;10.12;100.00
35647;BME280;28680;45.642;13.756;2023-03-01T08:57:03;101058.56;;;10.51;100.00
35647;BME280;28680;45.642;13.756;2023-03-01T08:59:29;101075.22;;;11.09;100.00
35647;BME280;28680;45.642;13.756;2023-03-01T09:01:56;101060.41;;;11.55;100.00
35647;BME280;28680;45.642;13.756;2023-03-01T09:04:22;101070.59;;;10.53;100.00
35647;BME280;28680;45.642;13.756;2023-03-01T09:06:48;101049.31;;;10.69;100.00
35647;BME280;28680;45.642;13.756;2023-03-01T09:09:16;101034.06;;;10.75;100.00
35647;BME280;28680;45.642;13.756;2023-03-01T09:15:13;101028.78;;;10.99;100.00
35647;BME280;28680;45.642;13.756;2023-03-01T09:17:51;101045.19;;;11.70;100.00
35647;BME280;28680;45.642;13.756;2023-03-01T09:20:17;101025.84;;;11.71;100.00
35647;BME280;28680;45.642;13.756;2023-03-01T09:22:43;101003.13;;;11.93;100.00
35647;BME280;28680;45.642;13.756;2023-03-01T09:25:09;101017.94;;;11.82;100.00
35647;BME280;28680;45.642;13.756;2023-03-01T09:27:35;101039.59;;;11.86;100.00
35647;BME280;28680;45.642;13.756;2023-03-01T09:30:02;101020.47;;;11.50;100.00
35647;BME280;28680;45.642;13.756;2023-03-01T09:32:31;101022.88;;;11.42;100.00
35647;BME280;28680;45.642;13.756;2023-03-01T09:34:57;101052.38;;;11.57;100.00
35647;BME280;28680;45.642;13.756;2023-03-01T09:37:34;101046.53;;;11.42;100.00
35647;BME280;28680;45.642;13.756;2023-03-01T09:40:02;101038.88;;;11.61;100.00
35647;BME280;28680;45.642;13.756;2023-03-01T09:42:32;101037.31;;;11.47;100.00
35647;BME280;28680;45.642;13.756;2023-03-01T09:45:10;101065.28;;;11.48;100.00
35647;BME280;28680;45.642;13.756;2023-03-01T09:47:37;101039.78;;;11.26;100.00
35647;BME280;28680;45.642;13.756;2023-03-01T09:50:19;101024.31;;;11.46;100.00
35647;BME280;28680;45.642;13.756;2023-03-01T09:53:10;101043.16;;;11.51;100.00
35647;BME280;28680;45.642;13.756;2023-03-01T09:55:54;101035.97;;;11.87;100.00
35647;BME280;28680;45.642;13.756;2023-03-01T09:58:47;101026.69;;;11.94;100.00
35647;BME280;28680;45.642;13.756;2023-03-01T10:04:26;101029.38;;;11.02;100.00
35647;BME280;28680;45.642;13.756;2023-03-01T10:07:19;101009.06;;;10.93;100.00
35647;BME280;28680;45.642;13.756;2023-03-01T10:09:47;101022.16;;;10.82;100.00
35647;BME280;28680;45.642;13.756;2023-03-01T10:12:30;101041.16;;;10.85;100.00
35647;BME280;28680;45.642;13.756;2023-03-01T10:18:16;101053.91;;;11.37;100.00
35647;BME280;28680;45.642;13.756;2023-03-01T10:21:15;101040.78;;;10.90;100.00
35647;BME280;28680;45.642;13.756;2023-03-01T10:23:42;101056.22;;;10.95;100.00
35647;BME280;28680;45.642;13.756;2023-03-01T10:26:27;101089.47;;;10.34;100.00
35647;BME280;28680;45.642;13.756;2023-03-01T10:29:09;101044.09;;;10.81;100.00
35647;BME280;28680;45.642;13.756;2023-03-01T10:31:50;101073.63;;;11.31;100.00
35647;BME280;28680;45.642;13.756;2023-03-01T10:34:29;101065.25;;;10.90;100.00
35647;BME280;28680;45.642;13.756;2023-03-01T10:37:04;101091.69;;;10.15;100.00
35647;BME280;28680;45.642;13.756;2023-03-01T10:39:33;101149.00;;;9.95;100.00
35647;BME280;28680;45.642;13.756;2023-03-01T10:42:03;101122.41;;;10.26;100.00
35647;BME280;28680;45.642;13.756;2023-03-01T10:44:56;101184.78;;;9.31;100.00
35647;BME280;28680;45.642;13.756;2023-03-01T10:47:27;101214.22;;;9.74;100.00
35647;BME280;28680;45.642;13.756;2023-03-01T10:49:57;101219.13;;;9.53;100.00
35647;BME280;28680;45.642;13.756;2023-03-01T10:52:39;101218.72;;;9.72;100.00
35647;BME280;28680;45.642;13.756;2023-03-01T10:55:42;101204.59;;;9.88;100.00
35647;BME280;28680;45.642;13.756;2023-03-01T10:58:20;101238.22;;;9.28;100.00
35647;BME280;28680;45.642;13.756;2023-03-01T11:00:59;101260.72;;;9.98;100.00
35647;BME280;28680;45.642;13.756;2023-03-01T11:03:34;101279.50;;;10.56;100.00
35647;BME280;28680;45.642;13.756;2023-03-01T11:06:04;101234.50;;;10.86;100.00
35647;BME280;28680;45.642;13.756;2023-03-01T11:08:44;101190.59;;;10.88;100.00
35647;BME280;28680;45.642;13.756;2023-03-01T11:11:34;101203.50;;;10.91;100.00
35647;BME280;28680;45.642;13.756;2023-03-01T11:14:13;101198.84;;;10.34;100.00
35647;BME280;28680;45.642;13.756;2023-03-01T11:16:45;101208.19;;;10.99;100.00
35647;BME280;28680;45.642;13.756;2023-03-01T11:24:14;101255.75;;;11.31;100.00
35647;BME280;28680;45.642;13.756;2023-03-01T11:26:44;101226.38;;;10.65;100.00
35647;BME280;28680;45.642;13.756;2023-03-01T11:29:40;101231.00;;;10.49;100.00
35647;BME280;28680;45.642;13.756;2023-03-01T11:32:10;101206.91;;;9.92;100.00
35647;BME280;28680;45.642;13.756;2023-03-01T11:38:25;101234.69;;;9.95;100.00
35647;BME280;28680;45.642;13.756;2023-03-01T11:41:26;101215.81;;;10.03;100.00
35647;BME280;28680;45.642;13.756;2023-03-01T11:44:03;101245.56;;;9.63;100.00
35647;BME280;28680;45.642;13.756;2023-03-01T11:52:45;101222.53;;;11.19;100.00
35647;BME280;28680;45.642;13.756;2023-03-01T11:58:22;101202.91;;;10.38;100.00
35647;BME280;28680;45.642;13.756;2023-03-01T12:01:35;101224.38;;;10.56;100.00
35647;BME280;28680;45.642;13.756;2023-03-01T12:18:57;101136.25;;;10.28;100.00
35647;BME280;28680;45.642;13.756;2023-03-01T12:36:37;101135.69;;;10.48;100.00
35647;BME280;28680;45.642;13.756;2023-03-01T12:42:30;101109.97;;;10.53;100.00
35647;BME280;28680;45.642;13.756;2023-03-01T12:48:31;101117.78;;;10.29;100.00
35647;BME280;28680;45.642;13.756;2023-03-01T12:51:17;101119.06;;;10.37;100.00
35647;BME280;28680;45.642;13.756;2023-03-01T12:53:50;101095.41;;;11.09;100.00
35647;BME280;28680;45.642;13.756;2023-03-01T12:56:32;101094.34;;;11.11;100.00
35647;BME280;28680;45.642;13.756;2023-03-01T13:07:52;101108.50;;;11.33;100.00
35647;BME280;28680;45.642;13.756;2023-03-01T13:10:53;101115.44;;;11.57;100.00
35647;BME280;28680;45.642;13.756;2023-03-01T13:13:24;101107.19;;;11.39;100.00
35647;BME280;28680;45.642;13.756;2023-03-01T13:15:51;101135.88;;;11.42;100.00
35647;BME280;28680;45.642;13.756;2023-03-01T14:17:49;101089.41;;;10.71;100.00
35647;BME280;28680;45.642;13.756;2023-03-01T14:20:27;101083.63;;;10.90;100.00
35647;BME280;28680;45.642;13.756;2023-03-01T14:22:57;101098.44;;;9.93;100.00
35647;BME280;28680;45.642;13.756;2023-03-01T14:25:33;101085.75;;;10.50;100.00
35647;BME280;28680;45.642;13.756;2023-03-01T14:29:02;101040.84;;;11.12;100.00
35647;BME280;28680;45.642;13.756;2023-03-01T14:31:39;101061.88;;;10.77;100.00
35647;BME280;28680;45.642;13.756;2023-03-01T14:34:05;101056.09;;;10.61;100.00
35647;BME280;28680;45.642;13.756;2023-03-01T14:36:33;101049.66;;;10.65;100.00
35647;BME280;28680;45.642;13.756;2023-03-01T14:39:00;101054.78;;;11.02;100.00
35647;BME280;28680;45.642;13.756;2023-03-01T14:41:34;101090.84;;;10.64;100.00
35647;BME280;28680;45.642;13.756;2023-03-01T14:44:06;101101.88;;;10.81;100.00
35647;BME280;28680;45.642;13.756;2023-03-01T14:46:36;101107.56;;;10.75;100.00
35647;BME280;28680;45.642;13.756;2023-03-01T14:51:42;101126.56;;;9.91;100.00
35647;BME280;28680;45.642;13.756;2023-03-01T14:54:41;101143.53;;;9.73;100.00
35647;BME280;28680;45.642;13.756;2023-03-01T14:57:20;101165.22;;;9.36;100.00
35647;BME280;28680;45.642;13.756;2023-03-01T14:59:51;101181.88;;;9.48;100.00
35647;BME280;28680;45.642;13.756;2023-03-01T15:02:23;101171.38;;;9.23;100.00
35647;BME280;28680;45.642;13.756;2023-03-01T15:04:53;101136.63;;;9.59;100.00
35647;BME280;28680;45.642;13.756;2023-03-01T15:07:20;101137.03;;;9.40;100.00
35647;BME280;28680;45.642;13.756;2023-03-01T15:09:46;101107.16;;;9.55;100.00
35647;BME280;28680;45.642;13.756;2023-03-01T15:12:38;101065.03;;;10.21;100.00
35647;BME280;28680;45.642;13.756;2023-03-01T15:18:11;101057.16;;;9.71;100.00
35647;BME280;28680;45.642;13.756;2023-03-01T15:20:39;101054.63;;;9.83;100.00
35647;BME280;28680;45.642;13.756;2023-03-01T15:23:05;101037.81;;;9.98;100.00
35647;BME280;28680;45.642;13.756;2023-03-01T15:25:32;101060.09;;;9.54;100.00
35647;BME280;28680;45.642;13.756;2023-03-01T15:28:00;101044.19;;;9.44;100.00
35647;BME280;28680;45.642;13.756;2023-03-01T15:30:35;101040.94;;;9.41;100.00
35647;BME280;28680;45.642;13.756;2023-03-01T15:33:33;101042.47;;;9.69;100.00
35647;BME280;28680;45.642;13.756;2023-03-01T15:36:02;101034.25;;;9.99;100.00
35647;BME280;28680;45.642;13.756;2023-03-01T15:41:00;101049.25;;;10.58;100.00
35647;BME280;28680;45.642;13.756;2023-03-01T15:44:01;101063.75;;;9.77;100.00
35647;BME280;28680;45.642;13.756;2023-03-01T15:46:39;101082.53;;;9.32;100.00
35647;BME280;28680;45.642;13.756;2023-03-01T15:49:44;101125.97;;;9.09;100.00